バンギ の空港の天気 - METARとTAF

バンギ・ムポコ国際空港 ( FEFF / BGF ) - 中央アフリカ バンギ
飛行場実況気象(Metar)
観測時間06/24 10:00 WAT (06/24 09:00 UTC)
風向・風速西南西 2m/s
視程10km以上
天気現象
全天の4割程度の雲 雲底高度 490m
気温29℃
湿度70%
気圧1013hPa
METARFEFF 240900Z 25004KT 9999 SCT016 29/23 Q1013 NOSIG
過去の天気等 Google飛行場航空写真 Wunderground天気予報

過去48時間のMETAR

飛行場予報(TAF)
発表時間: 6/24 06:00 WAT (6/24 05:00 UTC)
予報対象時間: 24日7時 WAT ~ 25日13時 WAT
風向・風速不定 1m/s
視程10km以上
全天の4割程度の雲 雲底高度 240m
24日9時 WAT ~ 24日11時 WAT に徐々に
風向・風速南西 6m/s
全天の8割程度の雲 雲底高度 400m
24日11時 WAT ~ 24日13時 WAT に徐々に
全天の8割程度の雲 雲底高度 610m
少しの積乱雲 雲底高度 1010m
24日14時 WAT ~ 24日21時 WAT に一時的に
視程4000m
天気現象雷雨
25日2時 WAT ~ 25日7時 WAT に 確率 30% で一時的に
天気現象雷雨
全天の8割程度の雲 雲底高度 240m
少しの積乱雲 雲底高度 910m
TAF FEFF 240500Z 2406/2512 VRB02KT 9999 SCT008
BECMG 2408/2410 22012KT BKN013
BECMG 2410/2412 BKN020 FEW033CB
TEMPO 2413/2420 4000 TSRA
PROB30 TEMPO 2501/2506 TSRA BKN008 FEW030CB